createdAt,value
2022-12-31T00:00:09.607Z,5.00
2022-12-31T00:02:36.739Z,5.00
2022-12-31T00:05:04.609Z,5.00
2022-12-31T00:09:58.111Z,4.90
2022-12-31T00:12:25.515Z,5.00
2022-12-31T00:14:52.452Z,4.90
2022-12-31T00:17:19.463Z,5.00
2022-12-31T00:19:46.344Z,5.10
2022-12-31T00:22:13.230Z,5.00
2022-12-31T00:24:40.150Z,5.00
2022-12-31T00:27:07.013Z,5.10
2022-12-31T00:29:33.924Z,5.00
2022-12-31T00:32:00.861Z,5.00
2022-12-31T00:34:27.745Z,5.00
2022-12-31T00:36:54.634Z,5.00
2022-12-31T00:39:21.566Z,5.00
2022-12-31T00:41:48.429Z,4.90
2022-12-31T00:44:15.331Z,4.90
2022-12-31T00:49:08.011Z,4.90
2022-12-31T00:51:34.878Z,5.00
2022-12-31T00:54:02.161Z,5.00
2022-12-31T00:56:31.013Z,5.00
2022-12-31T00:58:59.135Z,5.00
2022-12-31T01:01:27.952Z,5.00
2022-12-31T01:03:59.505Z,5.00
2022-12-31T01:06:26.662Z,5.00
2022-12-31T01:08:55.758Z,5.00
2022-12-31T01:11:24.100Z,5.00
2022-12-31T01:13:54.373Z,5.00
2022-12-31T01:16:24.347Z,5.00
2022-12-31T01:18:51.659Z,5.10
2022-12-31T01:21:20.119Z,5.10
2022-12-31T01:23:47.427Z,5.00
2022-12-31T01:26:16.231Z,5.10
2022-12-31T01:28:43.356Z,5.10
2022-12-31T01:31:15.600Z,5.10
2022-12-31T01:33:43.291Z,5.10
2022-12-31T01:36:30.159Z,5.20
2022-12-31T01:38:59.509Z,5.20
2022-12-31T01:41:32.505Z,5.20
2022-12-31T01:44:00.704Z,5.10
2022-12-31T01:46:47.273Z,5.20
2022-12-31T01:49:26.779Z,5.20
2022-12-31T01:52:15.686Z,5.20
2022-12-31T01:54:50.504Z,5.20
2022-12-31T01:57:18.356Z,5.30
2022-12-31T01:59:45.973Z,5.40
2022-12-31T02:02:14.562Z,5.30
2022-12-31T02:04:41.993Z,5.30
2022-12-31T02:07:10.065Z,5.30
2022-12-31T02:09:39.519Z,5.30
2022-12-31T02:12:08.005Z,5.40
2022-12-31T02:14:50.616Z,5.40
2022-12-31T02:17:32.562Z,5.30
2022-12-31T02:20:25.121Z,5.40
2022-12-31T02:23:07.131Z,5.30
2022-12-31T02:26:05.217Z,5.30
2022-12-31T02:29:11.893Z,5.30
2022-12-31T02:31:50.841Z,5.30
2022-12-31T02:34:33.041Z,5.30
2022-12-31T02:37:03.935Z,5.40
2022-12-31T02:39:32.493Z,5.30
2022-12-31T02:42:00.580Z,5.40
2022-12-31T02:44:30.146Z,5.40
2022-12-31T02:47:09.073Z,5.50
2022-12-31T02:49:54.573Z,5.50
2022-12-31T02:52:34.374Z,5.60
2022-12-31T02:55:24.594Z,5.60
2022-12-31T02:57:56.131Z,5.50
2022-12-31T03:00:42.258Z,5.60
2022-12-31T03:03:10.565Z,5.60
2022-12-31T03:05:41.996Z,5.60
2022-12-31T03:08:09.674Z,5.60
2022-12-31T03:10:36.913Z,5.60
2022-12-31T03:13:03.987Z,5.50
2022-12-31T03:15:34.910Z,5.50
2022-12-31T03:18:05.011Z,5.50
2022-12-31T03:20:54.940Z,5.40
2022-12-31T03:23:40.152Z,5.30
2022-12-31T03:26:12.103Z,5.30
2022-12-31T03:28:47.990Z,5.30
2022-12-31T03:31:16.372Z,5.30
2022-12-31T03:33:43.457Z,5.30
2022-12-31T03:36:13.770Z,5.30
2022-12-31T03:38:41.196Z,5.40
2022-12-31T03:41:11.167Z,5.40
2022-12-31T03:43:38.319Z,5.30
2022-12-31T03:46:05.444Z,5.30
2022-12-31T03:48:32.388Z,5.30
2022-12-31T03:50:59.359Z,5.30
2022-12-31T03:53:26.280Z,5.30
2022-12-31T03:55:54.471Z,5.30
2022-12-31T03:58:21.774Z,5.40
2022-12-31T04:00:48.823Z,5.30
2022-12-31T04:03:15.854Z,5.20
2022-12-31T04:05:42.922Z,5.20
2022-12-31T04:08:09.847Z,5.20
2022-12-31T04:10:36.733Z,5.10
2022-12-31T04:13:04.908Z,5.20
2022-12-31T04:15:32.135Z,5.10
2022-12-31T04:17:59.123Z,5.10
2022-12-31T04:20:26.069Z,5.10
2022-12-31T04:22:53.038Z,5.10
2022-12-31T04:25:20.090Z,5.10
2022-12-31T04:27:46.950Z,5.00
2022-12-31T04:30:14.339Z,5.00
2022-12-31T04:32:41.980Z,5.00
2022-12-31T04:35:10.205Z,5.00
2022-12-31T04:37:37.209Z,5.00
2022-12-31T04:40:06.532Z,5.00
2022-12-31T04:42:34.889Z,5.00
2022-12-31T04:45:01.821Z,5.00
2022-12-31T04:47:28.898Z,5.00
2022-12-31T04:49:55.851Z,5.10
2022-12-31T04:52:22.928Z,5.00
2022-12-31T04:54:50.066Z,4.90
2022-12-31T04:57:16.997Z,4.90
2022-12-31T04:59:43.988Z,4.90
2022-12-31T05:02:11.108Z,4.90
2022-12-31T05:04:38.122Z,4.90
2022-12-31T05:07:05.007Z,4.90
2022-12-31T05:09:31.912Z,4.90
2022-12-31T05:11:58.841Z,4.80
2022-12-31T05:14:26.511Z,4.90
2022-12-31T05:16:53.692Z,4.90
2022-12-31T05:19:20.847Z,4.90
2022-12-31T05:22:07.934Z,4.90
2022-12-31T05:24:34.825Z,4.80
2022-12-31T05:27:02.231Z,4.70
2022-12-31T05:29:29.145Z,4.80
2022-12-31T05:31:56.034Z,4.90
2022-12-31T05:34:22.947Z,4.90
2022-12-31T05:36:49.837Z,4.90
2022-12-31T05:39:16.866Z,4.90
2022-12-31T05:41:43.725Z,4.90
2022-12-31T05:44:11.156Z,4.90
2022-12-31T05:46:38.022Z,5.00
2022-12-31T05:49:05.077Z,5.00
2022-12-31T05:51:31.962Z,5.00
2022-12-31T05:53:58.885Z,4.90
2022-12-31T05:56:25.805Z,4.90
2022-12-31T05:58:52.696Z,4.90
2022-12-31T06:01:19.629Z,4.90
2022-12-31T06:03:46.923Z,5.00
2022-12-31T06:06:14.079Z,5.10
2022-12-31T06:08:41.107Z,5.10
2022-12-31T06:11:08.249Z,5.20
2022-12-31T06:13:35.192Z,5.20
2022-12-31T06:16:06.782Z,5.30
2022-12-31T06:18:33.688Z,5.30
2022-12-31T06:21:01.025Z,5.30
2022-12-31T06:23:27.927Z,5.30
2022-12-31T06:25:54.810Z,5.30
2022-12-31T06:28:21.781Z,5.30
2022-12-31T06:30:49.000Z,5.20
2022-12-31T06:33:15.943Z,5.10
2022-12-31T06:35:42.876Z,5.10
2022-12-31T06:38:09.750Z,5.00
2022-12-31T06:40:37.829Z,5.00
2022-12-31T06:43:05.387Z,5.00
2022-12-31T06:45:32.232Z,5.00
2022-12-31T06:47:59.093Z,5.00
2022-12-31T06:50:25.982Z,5.00
2022-12-31T06:52:52.854Z,5.10
2022-12-31T06:55:20.224Z,5.10
2022-12-31T06:57:47.361Z,5.20
2022-12-31T07:00:14.864Z,5.20
2022-12-31T07:03:01.737Z,5.20
2022-12-31T07:05:52.518Z,5.10
2022-12-31T07:08:57.895Z,5.10
2022-12-31T07:11:35.592Z,5.10
2022-12-31T07:14:28.428Z,5.00
2022-12-31T07:17:16.917Z,5.10
2022-12-31T07:19:57.498Z,5.10
2022-12-31T07:22:25.213Z,5.10
2022-12-31T07:24:52.329Z,5.20
2022-12-31T07:27:50.844Z,5.20
2022-12-31T07:30:22.372Z,5.20
2022-12-31T07:33:01.395Z,5.30
2022-12-31T07:35:39.499Z,5.40
2022-12-31T07:38:50.969Z,5.40
2022-12-31T07:41:42.332Z,5.40
2022-12-31T07:44:26.705Z,5.40
2022-12-31T07:46:57.008Z,5.40
2022-12-31T07:49:25.753Z,5.40
2022-12-31T07:51:53.249Z,5.30
2022-12-31T07:54:21.261Z,5.40
2022-12-31T07:56:50.043Z,5.40
2022-12-31T07:59:29.625Z,5.50
2022-12-31T08:02:21.185Z,5.60
2022-12-31T08:05:09.097Z,5.80
2022-12-31T08:07:46.609Z,5.80
2022-12-31T08:10:25.683Z,5.70
2022-12-31T08:13:00.638Z,5.80
2022-12-31T08:15:30.620Z,5.90
2022-12-31T08:17:58.257Z,6.00
2022-12-31T08:20:27.031Z,6.00
2022-12-31T08:23:19.921Z,6.00
2022-12-31T08:26:02.209Z,6.00
2022-12-31T08:28:31.969Z,6.10
2022-12-31T08:31:16.586Z,6.20
2022-12-31T08:34:08.530Z,6.30
2022-12-31T08:36:53.743Z,6.40
2022-12-31T08:39:56.717Z,6.50
2022-12-31T08:42:44.283Z,6.70
2022-12-31T08:45:19.511Z,6.80
2022-12-31T08:48:04.548Z,6.90
2022-12-31T08:50:31.664Z,7.00
2022-12-31T08:52:59.199Z,7.10
2022-12-31T08:55:26.462Z,7.20
2022-12-31T08:58:10.845Z,7.20
2022-12-31T09:00:38.911Z,7.60
2022-12-31T09:03:15.496Z,7.30
2022-12-31T09:06:14.543Z,7.40
2022-12-31T09:09:36.426Z,7.50
2022-12-31T09:12:41.617Z,7.60
2022-12-31T09:15:21.276Z,7.70
2022-12-31T09:17:49.776Z,7.70
2022-12-31T09:20:41.814Z,7.40
2022-12-31T09:23:10.097Z,7.50
2022-12-31T09:25:47.272Z,7.60
2022-12-31T09:28:16.318Z,7.70
2022-12-31T09:31:03.225Z,7.70
2022-12-31T09:34:08.107Z,7.70
2022-12-31T09:36:48.881Z,7.70
2022-12-31T09:39:29.692Z,7.80
2022-12-31T09:42:41.340Z,7.80
2022-12-31T09:45:45.736Z,7.70
2022-12-31T09:48:31.377Z,7.70
2022-12-31T09:51:23.457Z,7.60
2022-12-31T09:54:27.326Z,7.70
2022-12-31T09:57:17.452Z,7.80
2022-12-31T10:00:17.082Z,7.70
2022-12-31T10:02:53.059Z,7.80
2022-12-31T10:05:42.611Z,7.80
2022-12-31T10:08:18.201Z,7.80
2022-12-31T10:11:01.166Z,7.80
2022-12-31T10:13:41.717Z,7.70
2022-12-31T10:16:30.436Z,7.70
2022-12-31T10:19:22.169Z,7.70
2022-12-31T10:22:04.104Z,7.70
2022-12-31T10:24:41.918Z,7.80
2022-12-31T10:27:36.889Z,7.90
2022-12-31T10:30:20.930Z,8.10
2022-12-31T10:33:06.612Z,8.10
2022-12-31T10:35:49.800Z,8.10
2022-12-31T10:38:22.218Z,8.10
2022-12-31T10:41:01.301Z,8.10
2022-12-31T10:43:28.151Z,8.20
2022-12-31T10:46:22.862Z,8.30
2022-12-31T10:49:06.645Z,8.40
2022-12-31T10:51:53.893Z,8.40
2022-12-31T10:54:42.482Z,8.30
2022-12-31T10:57:37.339Z,8.30
2022-12-31T11:00:10.578Z,8.30
2022-12-31T11:02:40.329Z,8.10
2022-12-31T11:05:31.938Z,8.00
2022-12-31T11:08:49.958Z,8.00
2022-12-31T11:11:43.167Z,8.00
2022-12-31T11:14:35.075Z,8.10
2022-12-31T11:17:17.234Z,8.00
2022-12-31T11:20:01.857Z,7.90
2022-12-31T11:22:50.969Z,7.80
2022-12-31T11:25:28.399Z,7.90
2022-12-31T11:28:21.430Z,7.90
2022-12-31T11:31:06.548Z,7.90
2022-12-31T11:34:06.521Z,7.90
2022-12-31T11:37:06.934Z,7.90
2022-12-31T11:39:33.811Z,8.00
2022-12-31T11:42:38.759Z,8.00
2022-12-31T11:45:22.794Z,8.00
2022-12-31T11:48:29.760Z,8.00
2022-12-31T11:51:12.198Z,8.10
2022-12-31T11:54:09.463Z,8.20
2022-12-31T11:56:40.824Z,8.20
2022-12-31T11:59:18.980Z,8.20
2022-12-31T12:02:00.696Z,8.10
2022-12-31T12:04:28.143Z,8.10
2022-12-31T12:06:55.023Z,8.10
2022-12-31T12:09:31.236Z,8.00
2022-12-31T12:12:00.900Z,8.00
2022-12-31T12:14:42.527Z,8.10
2022-12-31T12:17:15.516Z,8.10
2022-12-31T12:19:53.658Z,8.20
2022-12-31T12:22:26.412Z,8.30
2022-12-31T12:24:58.436Z,8.40
2022-12-31T12:27:30.866Z,8.30
2022-12-31T12:29:57.930Z,8.20
2022-12-31T12:32:27.358Z,8.20
2022-12-31T12:34:54.397Z,8.30
2022-12-31T12:37:35.561Z,8.40
2022-12-31T12:40:21.244Z,8.50
2022-12-31T12:42:50.223Z,8.50
2022-12-31T12:45:26.558Z,8.50
2022-12-31T12:48:01.115Z,8.50
2022-12-31T12:50:43.533Z,8.50
2022-12-31T12:53:10.391Z,8.50
2022-12-31T12:56:00.547Z,8.50
2022-12-31T12:58:45.394Z,8.50
2022-12-31T13:01:21.170Z,8.40
2022-12-31T13:04:32.582Z,8.40
2022-12-31T13:06:53.052Z,8.50
2022-12-31T13:09:28.776Z,8.50
2022-12-31T13:12:11.648Z,8.50
2022-12-31T13:14:50.549Z,8.60
2022-12-31T13:17:41.690Z,8.70
2022-12-31T13:20:23.484Z,8.70
2022-12-31T13:23:17.488Z,8.60
2022-12-31T13:25:53.501Z,8.70
2022-12-31T13:28:23.015Z,8.70
2022-12-31T13:30:56.860Z,8.80
2022-12-31T13:33:33.723Z,8.80
2022-12-31T13:36:04.708Z,8.90
2022-12-31T13:38:38.899Z,8.90
2022-12-31T13:41:17.789Z,8.90
2022-12-31T13:43:58.502Z,9.00
2022-12-31T13:46:37.626Z,9.00
2022-12-31T13:49:14.789Z,9.00
2022-12-31T13:51:45.060Z,9.10
2022-12-31T13:54:36.860Z,9.10
2022-12-31T13:57:11.584Z,9.10
2022-12-31T13:59:43.401Z,9.00
2022-12-31T14:02:31.147Z,9.00
2022-12-31T14:05:06.976Z,9.00
2022-12-31T14:07:45.933Z,9.00
2022-12-31T14:10:15.490Z,9.00
2022-12-31T14:13:22.336Z,9.00
2022-12-31T14:16:00.322Z,9.00
2022-12-31T14:18:54.162Z,9.00
2022-12-31T14:21:38.395Z,9.00
2022-12-31T14:24:44.593Z,9.00
2022-12-31T14:27:24.539Z,8.90
2022-12-31T14:30:01.286Z,9.00
2022-12-31T14:32:45.533Z,9.00
2022-12-31T14:35:43.238Z,8.90
2022-12-31T14:38:40.598Z,8.80
2022-12-31T14:41:33.448Z,8.80
2022-12-31T14:44:23.466Z,8.90
2022-12-31T14:46:56.106Z,8.90
2022-12-31T14:49:41.009Z,8.90
2022-12-31T14:52:20.476Z,8.90
2022-12-31T14:55:09.419Z,9.00
2022-12-31T14:58:25.316Z,9.00
2022-12-31T15:00:38.295Z,9.00
2022-12-31T15:03:16.377Z,8.90
2022-12-31T15:06:10.063Z,8.90
2022-12-31T15:09:08.177Z,8.90
2022-12-31T15:12:04.150Z,8.90
2022-12-31T15:14:49.177Z,8.80
2022-12-31T15:17:19.085Z,8.80
2022-12-31T15:20:04.797Z,8.70
2022-12-31T15:22:45.394Z,8.70
2022-12-31T15:25:35.223Z,8.60
2022-12-31T15:28:25.714Z,8.60
2022-12-31T15:30:56.698Z,8.60
2022-12-31T15:33:55.697Z,8.60
2022-12-31T15:36:25.444Z,8.60
2022-12-31T15:39:03.170Z,8.60
2022-12-31T15:41:42.920Z,8.60
2022-12-31T15:44:51.941Z,8.60
2022-12-31T15:47:28.572Z,8.60
2022-12-31T15:49:56.816Z,8.70
2022-12-31T15:52:43.763Z,8.60
2022-12-31T15:55:26.480Z,8.60
2022-12-31T15:58:00.279Z,8.60
2022-12-31T16:00:37.720Z,8.60
2022-12-31T16:03:04.899Z,8.60
2022-12-31T16:05:35.478Z,8.60
2022-12-31T16:08:02.418Z,8.60
2022-12-31T16:10:31.932Z,8.60
2022-12-31T16:13:00.577Z,8.60
2022-12-31T16:15:32.873Z,8.60
2022-12-31T16:18:35.880Z,8.60
2022-12-31T16:21:02.916Z,8.50
2022-12-31T16:23:29.829Z,8.40
2022-12-31T16:26:01.220Z,8.40
2022-12-31T16:28:33.299Z,8.30
2022-12-31T16:31:06.825Z,8.30
2022-12-31T16:33:33.961Z,8.30
2022-12-31T16:36:02.529Z,8.20
2022-12-31T16:38:37.104Z,8.20
2022-12-31T16:41:03.916Z,8.20
2022-12-31T16:43:37.586Z,8.10
2022-12-31T16:46:16.980Z,8.00
2022-12-31T16:48:51.994Z,7.90
2022-12-31T16:51:24.171Z,7.90
2022-12-31T16:53:52.189Z,7.80
2022-12-31T16:56:26.292Z,7.70
2022-12-31T16:59:03.420Z,7.60
2022-12-31T17:01:34.389Z,7.50
2022-12-31T17:04:04.928Z,7.50
2022-12-31T17:06:34.818Z,7.50
2022-12-31T17:09:12.897Z,7.60
2022-12-31T17:12:15.917Z,7.50
2022-12-31T17:14:51.082Z,7.40
2022-12-31T17:17:23.053Z,7.40
2022-12-31T17:19:55.738Z,7.50
2022-12-31T17:22:36.399Z,7.40
2022-12-31T17:25:22.957Z,7.30
2022-12-31T17:28:00.557Z,7.30
2022-12-31T17:30:31.496Z,7.20
2022-12-31T17:33:24.991Z,7.20
2022-12-31T17:36:14.654Z,7.20
2022-12-31T17:38:41.598Z,7.10
2022-12-31T17:41:08.452Z,7.10
2022-12-31T17:43:37.944Z,7.10
2022-12-31T17:46:16.733Z,7.10
2022-12-31T17:48:49.657Z,7.10
2022-12-31T17:51:16.531Z,7.10
2022-12-31T17:53:51.445Z,7.00
2022-12-31T17:56:19.799Z,7.00
2022-12-31T17:58:52.707Z,7.00
2022-12-31T18:01:22.389Z,7.00
2022-12-31T18:03:49.983Z,7.00
2022-12-31T18:06:17.932Z,6.90
2022-12-31T18:08:44.895Z,6.90
2022-12-31T18:11:18.125Z,6.90
2022-12-31T18:13:45.546Z,6.90
2022-12-31T18:16:12.504Z,6.90
2022-12-31T18:18:41.080Z,6.90
2022-12-31T18:21:14.073Z,6.90
2022-12-31T18:23:46.319Z,6.90
2022-12-31T18:26:21.363Z,6.80
2022-12-31T18:28:49.354Z,6.70
2022-12-31T18:31:17.245Z,6.70
2022-12-31T18:33:44.686Z,6.60
2022-12-31T18:36:14.017Z,6.70
2022-12-31T18:38:41.131Z,6.60
2022-12-31T18:41:17.480Z,6.60
2022-12-31T18:43:44.536Z,6.60
2022-12-31T18:46:14.513Z,6.60
2022-12-31T18:48:42.060Z,6.70
2022-12-31T18:51:20.431Z,6.70
2022-12-31T18:53:47.891Z,6.80
2022-12-31T18:56:25.338Z,6.80
2022-12-31T18:58:52.424Z,6.90
2022-12-31T19:01:39.873Z,6.90
2022-12-31T19:04:27.117Z,6.90
2022-12-31T19:06:56.091Z,6.90
2022-12-31T19:12:13.654Z,6.90
2022-12-31T19:14:40.666Z,6.90
2022-12-31T19:19:34.925Z,7.00
2022-12-31T19:22:02.808Z,7.10
2022-12-31T19:24:29.875Z,7.10
2022-12-31T19:26:56.767Z,7.00
2022-12-31T19:29:27.982Z,7.00
2022-12-31T19:31:55.293Z,7.00
2022-12-31T19:34:22.252Z,7.00
2022-12-31T19:36:49.612Z,7.00
2022-12-31T19:39:19.269Z,7.00
2022-12-31T19:41:49.162Z,7.00
2022-12-31T19:44:21.504Z,7.00
2022-12-31T19:46:49.427Z,6.90
2022-12-31T19:49:16.786Z,6.80
2022-12-31T19:51:43.818Z,6.80
2022-12-31T19:54:13.366Z,6.80
2022-12-31T19:56:40.389Z,6.70
2022-12-31T19:59:09.531Z,6.60
2022-12-31T20:01:36.708Z,6.60
2022-12-31T20:04:04.027Z,6.50
2022-12-31T20:06:30.932Z,6.50
2022-12-31T20:08:57.845Z,6.50
2022-12-31T20:11:25.523Z,6.60
2022-12-31T20:13:54.054Z,6.70
2022-12-31T20:16:26.744Z,6.80
2022-12-31T20:18:54.004Z,6.70
2022-12-31T20:21:23.775Z,6.60
2022-12-31T20:23:52.367Z,6.60
2022-12-31T20:26:20.795Z,6.70
2022-12-31T20:28:47.775Z,6.70
2022-12-31T20:31:17.273Z,6.60
2022-12-31T20:33:44.836Z,6.60
2022-12-31T20:36:14.929Z,6.70
2022-12-31T20:38:42.152Z,6.80
2022-12-31T20:41:14.984Z,6.80
2022-12-31T20:43:42.596Z,6.70
2022-12-31T20:46:15.588Z,6.80
2022-12-31T20:48:44.401Z,6.90
2022-12-31T20:51:12.607Z,7.10
2022-12-31T20:53:39.590Z,7.40
2022-12-31T20:56:08.257Z,7.50
2022-12-31T20:58:35.473Z,7.50
2022-12-31T21:01:06.372Z,7.50
2022-12-31T21:04:04.290Z,7.30
2022-12-31T21:06:22.267Z,7.20
2022-12-31T21:08:49.206Z,7.20
2022-12-31T21:11:34.695Z,7.10
2022-12-31T21:14:02.465Z,7.10
2022-12-31T21:16:29.416Z,7.00
2022-12-31T21:18:56.654Z,7.00
2022-12-31T21:21:23.945Z,7.10
2022-12-31T21:23:51.025Z,7.20
2022-12-31T21:26:17.932Z,7.20
2022-12-31T21:28:45.145Z,7.30
2022-12-31T21:31:13.644Z,7.20
2022-12-31T21:33:43.983Z,7.00
2022-12-31T21:36:11.248Z,6.70
2022-12-31T21:38:38.152Z,6.60
2022-12-31T21:41:07.329Z,6.50
2022-12-31T21:43:34.916Z,6.40
2022-12-31T21:46:05.947Z,6.40
2022-12-31T21:48:33.396Z,6.30
2022-12-31T21:51:13.286Z,6.20
2022-12-31T21:53:40.869Z,6.10
2022-12-31T21:56:08.798Z,6.00
2022-12-31T21:58:46.523Z,6.00
2022-12-31T22:01:41.236Z,6.10
2022-12-31T22:04:28.180Z,6.10
2022-12-31T22:06:55.182Z,6.10
2022-12-31T22:09:22.042Z,6.00
2022-12-31T22:11:48.923Z,6.00
2022-12-31T22:14:15.846Z,5.90
2022-12-31T22:16:42.855Z,5.90
2022-12-31T22:19:09.799Z,5.90
2022-12-31T22:21:36.680Z,5.80
2022-12-31T22:24:03.731Z,5.70
2022-12-31T22:26:30.634Z,5.70
2022-12-31T22:28:59.691Z,5.70
2022-12-31T22:31:30.067Z,5.70
2022-12-31T22:33:58.569Z,5.70
2022-12-31T22:36:25.497Z,5.70
2022-12-31T22:38:57.353Z,5.60
2022-12-31T22:41:25.287Z,5.60
2022-12-31T22:44:00.524Z,5.50
2022-12-31T22:46:29.868Z,5.50
2022-12-31T22:48:58.838Z,5.40
2022-12-31T22:51:30.523Z,5.40
2022-12-31T22:54:13.433Z,5.40
2022-12-31T22:56:40.453Z,5.40
2022-12-31T22:59:07.323Z,5.30
2022-12-31T23:01:34.648Z,5.40
2022-12-31T23:04:01.740Z,5.40
2022-12-31T23:06:29.209Z,5.40
2022-12-31T23:09:14.795Z,5.40
2022-12-31T23:11:43.288Z,5.30
2022-12-31T23:14:35.001Z,5.20
2022-12-31T23:17:30.351Z,5.20
2022-12-31T23:20:20.150Z,5.10
2022-12-31T23:23:07.755Z,5.10
2022-12-31T23:25:47.676Z,5.10
2022-12-31T23:28:19.914Z,5.10
2022-12-31T23:30:46.942Z,5.10
2022-12-31T23:33:17.122Z,5.00
2022-12-31T23:35:44.126Z,5.00
2022-12-31T23:38:11.326Z,5.00
2022-12-31T23:40:38.222Z,5.00
2022-12-31T23:43:07.185Z,5.00
2022-12-31T23:45:34.888Z,5.00
2022-12-31T23:48:03.665Z,5.00
2022-12-31T23:50:30.683Z,4.90
2022-12-31T23:52:57.606Z,4.90
2022-12-31T23:55:24.500Z,4.90
2022-12-31T23:57:51.386Z,4.90
